Westminster, SC

7:53 PM EDT on October 31, 2014 (GMT -0400)
Jefferson | Change Station
CLOSE
Current Station
Airport
Location: Jefferson,
Elevation: 951 ft
Nearby Weather Stations
Active Advisory: Wind Advisory, Freeze Watch

Elev 951 ft 34.18 °N, 83.56 °W | Updated 18 minutes ago

Overcast
Overcast
55 °F
Feels Like 55 °F
N
7
Wind Variable Wind from NW

Today
High -- | Low -- °F
--% Chance of Precip.
Yesterday
High -- | Low -- °F
Precip. -- in
7:52 AM 6:39 PM
First Quarter, 60% visible
Pressure 29.86 in
Visibility 10.0 miles
Clouds Scattered Clouds 11000 ft
Dew Point 41 °F
Humidity 58%
Rainfall 0.00 in
Snow Depth Not available.
UV 0 out of 12
Pollen 2.00 out of 12
Air Quality Not available.
Flu Activity Not available.
METAR K19A 312335Z AUTO 31006KT 10SM SCT110 13/05 A2986 RMK AO2

More Conditions Fewer Conditions

Pressure 29.86 in
Visibility 10.0 miles
Clouds Scattered Clouds 11000 ft
Dew Point 41 °F
Humidity 58%
Rainfall 0.00 in
Snow Depth Not available.
UV 0 out of 12
Pollen 2.00 out of 12
Air Quality Not available.
Flu Activity Not available.
METAR K19A 312335Z AUTO 31006KT 10SM SCT110 13/05 A2986 RMK AO2

More Conditions Fewer Conditions

10-Day Weather Forecast

Almanac

Astronomy

Oct. 31, 2014 Rise Set
Actual Time
Civil Twilight
Nautical Twilight
Astronomical Twilight
Moon
Length of Visible Light
Length of Day
Tomorrow will be .
, % of the Moon is Illuminated

Today's Extremes

State Highs State Lows

Community

WunderPhotos

Upload Photos

1,766,786 photos uploaded!

WunderBlogs® & News

Nearby

Air Quality

  Air Quality AQ Index Pollutant
Not available.

Snow Depth

Station Depth Elevation

Earthquake Activity

City Distance Mag. Time & Date
Minimum magnitude displayed is 2.5.

Coastal Water Temperatures

Place Temperature

Nearby Weather Stations